sensor_id;sensor_type;location;lat;lon;timestamp;P1;durP1;ratioP1;P2;durP2;ratioP2
26435;SDS011;15351;52.408;16.826;2022-12-13T00:01:55;9.43;;;7.30;;
26435;SDS011;15351;52.408;16.826;2022-12-13T00:04:22;9.55;;;7.60;;
26435;SDS011;15351;52.408;16.826;2022-12-13T00:06:52;9.98;;;7.83;;
26435;SDS011;15351;52.408;16.826;2022-12-13T00:09:18;8.98;;;7.50;;
26435;SDS011;15351;52.408;16.826;2022-12-13T00:11:48;9.70;;;7.50;;
26435;SDS011;15351;52.408;16.826;2022-12-13T00:14:15;9.10;;;7.50;;
26435;SDS011;15351;52.408;16.826;2022-12-13T00:16:45;8.88;;;6.80;;
26435;SDS011;15351;52.408;16.826;2022-12-13T00:19:14;9.05;;;7.45;;
26435;SDS011;15351;52.408;16.826;2022-12-13T00:21:43;9.17;;;6.73;;
26435;SDS011;15351;52.408;16.826;2022-12-13T00:24:13;9.33;;;7.00;;
26435;SDS011;15351;52.408;16.826;2022-12-13T00:26:39;8.43;;;6.25;;
26435;SDS011;15351;52.408;16.826;2022-12-13T00:29:06;8.90;;;6.70;;
26435;SDS011;15351;52.408;16.826;2022-12-13T00:31:34;8.65;;;6.60;;
26435;SDS011;15351;52.408;16.826;2022-12-13T00:34:02;8.23;;;6.62;;
26435;SDS011;15351;52.408;16.826;2022-12-13T00:36:29;8.33;;;6.37;;
26435;SDS011;15351;52.408;16.826;2022-12-13T00:38:56;8.87;;;6.63;;
26435;SDS011;15351;52.408;16.826;2022-12-13T00:41:27;8.13;;;6.42;;
26435;SDS011;15351;52.408;16.826;2022-12-13T00:43:57;8.20;;;6.37;;
26435;SDS011;15351;52.408;16.826;2022-12-13T00:46:24;9.30;;;6.55;;
26435;SDS011;15351;52.408;16.826;2022-12-13T00:48:53;9.18;;;6.53;;
26435;SDS011;15351;52.408;16.826;2022-12-13T00:51:23;8.18;;;6.45;;
26435;SDS011;15351;52.408;16.826;2022-12-13T00:53:52;8.88;;;6.12;;
26435;SDS011;15351;52.408;16.826;2022-12-13T00:56:20;8.30;;;6.33;;
26435;SDS011;15351;52.408;16.826;2022-12-13T00:58:50;8.53;;;6.15;;
26435;SDS011;15351;52.408;16.826;2022-12-13T01:01:19;7.87;;;6.25;;
26435;SDS011;15351;52.408;16.826;2022-12-13T01:03:49;7.72;;;5.92;;
26435;SDS011;15351;52.408;16.826;2022-12-13T01:06:20;7.78;;;6.60;;
26435;SDS011;15351;52.408;16.826;2022-12-13T01:09:00;7.65;;;5.75;;
26435;SDS011;15351;52.408;16.826;2022-12-13T01:11:29;7.70;;;6.00;;
26435;SDS011;15351;52.408;16.826;2022-12-13T01:13:55;7.62;;;5.65;;
26435;SDS011;15351;52.408;16.826;2022-12-13T01:16:24;7.17;;;5.97;;
26435;SDS011;15351;52.408;16.826;2022-12-13T01:18:50;7.00;;;5.80;;
26435;SDS011;15351;52.408;16.826;2022-12-13T01:21:17;8.05;;;5.87;;
26435;SDS011;15351;52.408;16.826;2022-12-13T01:23:48;7.05;;;5.50;;
26435;SDS011;15351;52.408;16.826;2022-12-13T01:26:16;7.20;;;5.42;;
26435;SDS011;15351;52.408;16.826;2022-12-13T01:28:45;6.83;;;5.50;;
26435;SDS011;15351;52.408;16.826;2022-12-13T01:31:14;6.97;;;5.35;;
26435;SDS011;15351;52.408;16.826;2022-12-13T01:33:43;6.80;;;5.70;;
26435;SDS011;15351;52.408;16.826;2022-12-13T01:36:14;7.20;;;5.20;;
26435;SDS011;15351;52.408;16.826;2022-12-13T01:38:42;7.80;;;5.92;;
26435;SDS011;15351;52.408;16.826;2022-12-13T01:41:11;7.33;;;5.90;;
26435;SDS011;15351;52.408;16.826;2022-12-13T01:46:16;7.78;;;5.60;;
26435;SDS011;15351;52.408;16.826;2022-12-13T01:48:49;7.25;;;5.60;;
26435;SDS011;15351;52.408;16.826;2022-12-13T01:51:27;6.92;;;5.40;;
26435;SDS011;15351;52.408;16.826;2022-12-13T01:54:07;6.85;;;5.45;;
26435;SDS011;15351;52.408;16.826;2022-12-13T01:56:41;7.67;;;5.72;;
26435;SDS011;15351;52.408;16.826;2022-12-13T01:59:11;6.00;;;5.33;;
26435;SDS011;15351;52.408;16.826;2022-12-13T02:01:40;7.83;;;5.70;;
26435;SDS011;15351;52.408;16.826;2022-12-13T02:04:07;6.97;;;5.17;;
26435;SDS011;15351;52.408;16.826;2022-12-13T02:06:36;6.70;;;5.28;;
26435;SDS011;15351;52.408;16.826;2022-12-13T02:09:05;6.67;;;5.30;;
26435;SDS011;15351;52.408;16.826;2022-12-13T02:11:34;7.00;;;5.10;;
26435;SDS011;15351;52.408;16.826;2022-12-13T02:14:03;9.00;;;5.40;;
26435;SDS011;15351;52.408;16.826;2022-12-13T02:16:37;7.72;;;5.55;;
26435;SDS011;15351;52.408;16.826;2022-12-13T02:34:17;6.30;;;4.92;;
26435;SDS011;15351;52.408;16.826;2022-12-13T02:37:03;6.08;;;4.80;;
26435;SDS011;15351;52.408;16.826;2022-12-13T02:39:33;6.15;;;4.95;;
26435;SDS011;15351;52.408;16.826;2022-12-13T02:42:20;6.22;;;5.17;;
26435;SDS011;15351;52.408;16.826;2022-12-13T02:45:02;6.65;;;5.05;;
26435;SDS011;15351;52.408;16.826;2022-12-13T02:47:44;7.00;;;5.08;;
26435;SDS011;15351;52.408;16.826;2022-12-13T02:50:12;6.00;;;4.87;;
26435;SDS011;15351;52.408;16.826;2022-12-13T02:52:41;6.60;;;4.85;;
26435;SDS011;15351;52.408;16.826;2022-12-13T02:55:12;6.62;;;4.87;;
26435;SDS011;15351;52.408;16.826;2022-12-13T02:57:42;6.35;;;5.12;;
26435;SDS011;15351;52.408;16.826;2022-12-13T03:00:14;6.22;;;4.80;;
26435;SDS011;15351;52.408;16.826;2022-12-13T03:15:02;6.20;;;5.05;;
26435;SDS011;15351;52.408;16.826;2022-12-13T03:17:46;6.58;;;4.90;;
26435;SDS011;15351;52.408;16.826;2022-12-13T03:20:17;6.60;;;5.22;;
26435;SDS011;15351;52.408;16.826;2022-12-13T03:22:48;6.37;;;4.92;;
26435;SDS011;15351;52.408;16.826;2022-12-13T03:25:26;6.80;;;4.70;;
26435;SDS011;15351;52.408;16.826;2022-12-13T03:27:59;7.12;;;5.05;;
26435;SDS011;15351;52.408;16.826;2022-12-13T03:30:27;6.80;;;5.03;;
26435;SDS011;15351;52.408;16.826;2022-12-13T03:32:57;7.93;;;5.50;;
26435;SDS011;15351;52.408;16.826;2022-12-13T03:35:24;9.10;;;6.53;;
26435;SDS011;15351;52.408;16.826;2022-12-13T03:37:51;8.70;;;6.30;;
26435;SDS011;15351;52.408;16.826;2022-12-13T03:40:18;6.92;;;5.40;;
26435;SDS011;15351;52.408;16.826;2022-12-13T03:42:46;9.53;;;5.90;;
26435;SDS011;15351;52.408;16.826;2022-12-13T03:45:13;9.18;;;6.50;;
26435;SDS011;15351;52.408;16.826;2022-12-13T03:47:41;10.73;;;6.83;;
26435;SDS011;15351;52.408;16.826;2022-12-13T03:50:08;7.75;;;5.42;;
26435;SDS011;15351;52.408;16.826;2022-12-13T03:52:35;7.97;;;5.00;;
26435;SDS011;15351;52.408;16.826;2022-12-13T03:55:04;6.75;;;4.90;;
26435;SDS011;15351;52.408;16.826;2022-12-13T03:57:31;6.55;;;4.60;;
26435;SDS011;15351;52.408;16.826;2022-12-13T03:59:58;6.72;;;4.70;;
26435;SDS011;15351;52.408;16.826;2022-12-13T04:02:24;5.25;;;4.55;;
26435;SDS011;15351;52.408;16.826;2022-12-13T04:04:50;6.75;;;5.17;;
26435;SDS011;15351;52.408;16.826;2022-12-13T04:07:17;5.60;;;4.53;;
26435;SDS011;15351;52.408;16.826;2022-12-13T04:09:44;7.05;;;5.00;;
26435;SDS011;15351;52.408;16.826;2022-12-13T04:12:11;6.55;;;4.72;;
26435;SDS011;15351;52.408;16.826;2022-12-13T04:15:00;6.00;;;4.83;;
26435;SDS011;15351;52.408;16.826;2022-12-13T04:17:26;7.55;;;5.25;;
26435;SDS011;15351;52.408;16.826;2022-12-13T04:19:53;7.50;;;5.45;;
26435;SDS011;15351;52.408;16.826;2022-12-13T04:22:22;6.35;;;4.97;;
26435;SDS011;15351;52.408;16.826;2022-12-13T04:24:48;7.13;;;5.37;;
26435;SDS011;15351;52.408;16.826;2022-12-13T04:27:16;6.30;;;5.12;;
26435;SDS011;15351;52.408;16.826;2022-12-13T04:29:43;6.77;;;5.17;;
26435;SDS011;15351;52.408;16.826;2022-12-13T04:32:10;7.67;;;5.58;;
26435;SDS011;15351;52.408;16.826;2022-12-13T04:34:39;6.87;;;5.33;;
26435;SDS011;15351;52.408;16.826;2022-12-13T04:37:05;6.20;;;5.03;;
26435;SDS011;15351;52.408;16.826;2022-12-13T04:39:31;6.62;;;5.40;;
26435;SDS011;15351;52.408;16.826;2022-12-13T04:41:58;6.83;;;5.33;;
26435;SDS011;15351;52.408;16.826;2022-12-13T04:44:24;6.70;;;5.40;;
26435;SDS011;15351;52.408;16.826;2022-12-13T04:46:50;6.55;;;5.22;;
26435;SDS011;15351;52.408;16.826;2022-12-13T04:49:17;7.65;;;5.53;;
26435;SDS011;15351;52.408;16.826;2022-12-13T04:51:44;7.22;;;5.50;;
26435;SDS011;15351;52.408;16.826;2022-12-13T04:54:11;7.72;;;5.95;;
26435;SDS011;15351;52.408;16.826;2022-12-13T04:56:37;8.45;;;6.25;;
26435;SDS011;15351;52.408;16.826;2022-12-13T04:59:04;6.87;;;5.37;;
26435;SDS011;15351;52.408;16.826;2022-12-13T05:01:30;7.40;;;5.40;;
26435;SDS011;15351;52.408;16.826;2022-12-13T05:03:57;7.62;;;5.80;;
26435;SDS011;15351;52.408;16.826;2022-12-13T05:06:25;8.03;;;6.15;;
26435;SDS011;15351;52.408;16.826;2022-12-13T05:08:51;8.53;;;6.40;;
26435;SDS011;15351;52.408;16.826;2022-12-13T05:11:19;7.50;;;5.50;;
26435;SDS011;15351;52.408;16.826;2022-12-13T05:13:50;8.50;;;6.25;;
26435;SDS011;15351;52.408;16.826;2022-12-13T05:16:17;8.60;;;5.62;;
26435;SDS011;15351;52.408;16.826;2022-12-13T05:18:43;7.53;;;5.90;;
26435;SDS011;15351;52.408;16.826;2022-12-13T05:21:11;7.85;;;5.78;;
26435;SDS011;15351;52.408;16.826;2022-12-13T05:23:38;7.53;;;5.87;;
26435;SDS011;15351;52.408;16.826;2022-12-13T05:26:07;7.62;;;5.95;;
26435;SDS011;15351;52.408;16.826;2022-12-13T05:28:34;7.17;;;5.92;;
26435;SDS011;15351;52.408;16.826;2022-12-13T05:31:10;7.72;;;6.10;;
26435;SDS011;15351;52.408;16.826;2022-12-13T05:33:36;7.50;;;5.90;;
26435;SDS011;15351;52.408;16.826;2022-12-13T05:36:04;8.93;;;6.30;;
26435;SDS011;15351;52.408;16.826;2022-12-13T05:38:31;7.45;;;5.87;;
26435;SDS011;15351;52.408;16.826;2022-12-13T05:40:58;9.60;;;6.07;;
26435;SDS011;15351;52.408;16.826;2022-12-13T05:43:26;7.60;;;5.90;;
26435;SDS011;15351;52.408;16.826;2022-12-13T05:45:54;7.55;;;5.90;;
26435;SDS011;15351;52.408;16.826;2022-12-13T05:48:22;8.05;;;5.90;;
26435;SDS011;15351;52.408;16.826;2022-12-13T05:50:49;7.33;;;5.50;;
26435;SDS011;15351;52.408;16.826;2022-12-13T05:53:16;7.57;;;5.77;;
26435;SDS011;15351;52.408;16.826;2022-12-13T05:55:42;8.93;;;6.50;;
26435;SDS011;15351;52.408;16.826;2022-12-13T05:58:09;7.55;;;5.83;;
26435;SDS011;15351;52.408;16.826;2022-12-13T06:00:37;8.20;;;6.37;;
26435;SDS011;15351;52.408;16.826;2022-12-13T06:03:04;8.13;;;6.03;;
26435;SDS011;15351;52.408;16.826;2022-12-13T06:05:31;8.28;;;6.60;;
26435;SDS011;15351;52.408;16.826;2022-12-13T06:07:58;9.85;;;7.10;;
26435;SDS011;15351;52.408;16.826;2022-12-13T06:10:26;10.60;;;7.08;;
26435;SDS011;15351;52.408;16.826;2022-12-13T06:12:53;8.43;;;5.80;;
26435;SDS011;15351;52.408;16.826;2022-12-13T06:15:19;8.90;;;6.62;;
26435;SDS011;15351;52.408;16.826;2022-12-13T06:17:49;9.43;;;6.50;;
26435;SDS011;15351;52.408;16.826;2022-12-13T06:20:16;9.55;;;6.20;;
26435;SDS011;15351;52.408;16.826;2022-12-13T06:22:44;9.90;;;6.15;;
26435;SDS011;15351;52.408;16.826;2022-12-13T06:25:10;8.00;;;5.92;;
26435;SDS011;15351;52.408;16.826;2022-12-13T06:27:36;9.20;;;6.78;;
26435;SDS011;15351;52.408;16.826;2022-12-13T06:30:05;9.88;;;6.72;;
26435;SDS011;15351;52.408;16.826;2022-12-13T06:32:33;11.28;;;7.58;;
26435;SDS011;15351;52.408;16.826;2022-12-13T06:35:02;10.85;;;7.40;;
26435;SDS011;15351;52.408;16.826;2022-12-13T06:37:30;9.90;;;6.45;;
26435;SDS011;15351;52.408;16.826;2022-12-13T06:39:56;10.58;;;6.78;;
26435;SDS011;15351;52.408;16.826;2022-12-13T06:42:22;9.88;;;6.80;;
26435;SDS011;15351;52.408;16.826;2022-12-13T06:44:49;11.03;;;6.80;;
26435;SDS011;15351;52.408;16.826;2022-12-13T06:47:17;11.97;;;8.10;;
26435;SDS011;15351;52.408;16.826;2022-12-13T06:49:44;13.57;;;8.20;;
26435;SDS011;15351;52.408;16.826;2022-12-13T06:52:12;11.40;;;8.00;;
26435;SDS011;15351;52.408;16.826;2022-12-13T06:54:40;13.58;;;7.33;;
26435;SDS011;15351;52.408;16.826;2022-12-13T06:57:07;12.30;;;7.80;;
26435;SDS011;15351;52.408;16.826;2022-12-13T06:59:34;11.18;;;7.33;;
26435;SDS011;15351;52.408;16.826;2022-12-13T07:02:02;9.27;;;6.07;;
26435;SDS011;15351;52.408;16.826;2022-12-13T07:04:30;7.53;;;5.80;;
26435;SDS011;15351;52.408;16.826;2022-12-13T07:06:58;9.30;;;6.30;;
26435;SDS011;15351;52.408;16.826;2022-12-13T07:09:24;10.48;;;6.12;;
26435;SDS011;15351;52.408;16.826;2022-12-13T07:11:50;7.35;;;5.65;;
26435;SDS011;15351;52.408;16.826;2022-12-13T07:14:17;8.40;;;5.45;;
26435;SDS011;15351;52.408;16.826;2022-12-13T07:16:44;7.08;;;5.78;;
26435;SDS011;15351;52.408;16.826;2022-12-13T07:19:11;7.37;;;5.30;;
26435;SDS011;15351;52.408;16.826;2022-12-13T07:21:37;9.75;;;6.00;;
26435;SDS011;15351;52.408;16.826;2022-12-13T07:24:06;11.48;;;6.12;;
26435;SDS011;15351;52.408;16.826;2022-12-13T07:26:36;11.00;;;6.87;;
26435;SDS011;15351;52.408;16.826;2022-12-13T07:29:04;13.32;;;6.40;;
26435;SDS011;15351;52.408;16.826;2022-12-13T07:31:33;10.72;;;6.17;;
26435;SDS011;15351;52.408;16.826;2022-12-13T07:34:03;11.48;;;7.12;;
26435;SDS011;15351;52.408;16.826;2022-12-13T07:36:30;11.50;;;6.90;;
26435;SDS011;15351;52.408;16.826;2022-12-13T07:38:57;11.48;;;7.78;;
26435;SDS011;15351;52.408;16.826;2022-12-13T07:41:25;10.83;;;6.90;;
26435;SDS011;15351;52.408;16.826;2022-12-13T07:43:53;10.93;;;6.33;;
26435;SDS011;15351;52.408;16.826;2022-12-13T07:46:20;12.28;;;7.15;;
26435;SDS011;15351;52.408;16.826;2022-12-13T07:48:47;10.00;;;6.58;;
26435;SDS011;15351;52.408;16.826;2022-12-13T07:51:14;9.73;;;6.72;;
26435;SDS011;15351;52.408;16.826;2022-12-13T07:53:40;10.65;;;6.42;;
26435;SDS011;15351;52.408;16.826;2022-12-13T07:56:09;9.30;;;6.80;;
26435;SDS011;15351;52.408;16.826;2022-12-13T07:58:37;9.37;;;7.00;;
26435;SDS011;15351;52.408;16.826;2022-12-13T08:01:06;10.15;;;6.90;;
26435;SDS011;15351;52.408;16.826;2022-12-13T08:03:35;10.18;;;6.42;;
26435;SDS011;15351;52.408;16.826;2022-12-13T08:06:08;9.18;;;6.10;;
26435;SDS011;15351;52.408;16.826;2022-12-13T08:08:43;9.20;;;5.87;;
26435;SDS011;15351;52.408;16.826;2022-12-13T08:11:11;11.35;;;6.08;;
26435;SDS011;15351;52.408;16.826;2022-12-13T08:13:44;21.68;;;11.85;;
26435;SDS011;15351;52.408;16.826;2022-12-13T08:16:11;20.68;;;13.13;;
26435;SDS011;15351;52.408;16.826;2022-12-13T08:18:40;12.28;;;8.20;;
26435;SDS011;15351;52.408;16.826;2022-12-13T08:21:10;17.80;;;10.38;;
26435;SDS011;15351;52.408;16.826;2022-12-13T08:23:39;15.53;;;8.90;;
26435;SDS011;15351;52.408;16.826;2022-12-13T08:26:05;12.75;;;7.30;;
26435;SDS011;15351;52.408;16.826;2022-12-13T08:28:33;8.65;;;6.30;;
26435;SDS011;15351;52.408;16.826;2022-12-13T08:31:08;12.95;;;7.15;;
26435;SDS011;15351;52.408;16.826;2022-12-13T08:33:39;8.20;;;5.50;;
26435;SDS011;15351;52.408;16.826;2022-12-13T08:36:10;10.32;;;6.10;;
26435;SDS011;15351;52.408;16.826;2022-12-13T08:38:42;8.55;;;5.80;;
26435;SDS011;15351;52.408;16.826;2022-12-13T08:41:12;10.90;;;6.33;;
26435;SDS011;15351;52.408;16.826;2022-12-13T08:43:39;12.53;;;6.95;;
26435;SDS011;15351;52.408;16.826;2022-12-13T08:46:07;8.20;;;5.47;;
26435;SDS011;15351;52.408;16.826;2022-12-13T08:48:36;8.15;;;5.28;;
26435;SDS011;15351;52.408;16.826;2022-12-13T08:51:04;7.53;;;5.23;;
26435;SDS011;15351;52.408;16.826;2022-12-13T08:53:37;9.78;;;6.58;;
26435;SDS011;15351;52.408;16.826;2022-12-13T08:56:05;12.03;;;7.10;;
26435;SDS011;15351;52.408;16.826;2022-12-13T08:58:36;8.98;;;5.65;;
26435;SDS011;15351;52.408;16.826;2022-12-13T09:01:09;7.77;;;5.47;;
26435;SDS011;15351;52.408;16.826;2022-12-13T09:03:37;11.17;;;6.20;;
26435;SDS011;15351;52.408;16.826;2022-12-13T09:06:11;7.83;;;4.90;;
26435;SDS011;15351;52.408;16.826;2022-12-13T09:08:42;8.20;;;5.08;;
26435;SDS011;15351;52.408;16.826;2022-12-13T09:11:09;8.20;;;5.83;;
26435;SDS011;15351;52.408;16.826;2022-12-13T09:13:37;8.93;;;6.35;;
26435;SDS011;15351;52.408;16.826;2022-12-13T09:16:07;7.83;;;5.65;;
26435;SDS011;15351;52.408;16.826;2022-12-13T09:18:36;9.28;;;6.28;;
26435;SDS011;15351;52.408;16.826;2022-12-13T09:21:04;9.45;;;6.30;;
26435;SDS011;15351;52.408;16.826;2022-12-13T09:23:34;11.68;;;6.80;;
26435;SDS011;15351;52.408;16.826;2022-12-13T09:26:01;11.75;;;7.05;;
26435;SDS011;15351;52.408;16.826;2022-12-13T09:28:28;12.27;;;7.10;;
26435;SDS011;15351;52.408;16.826;2022-12-13T09:30:57;10.40;;;6.15;;
26435;SDS011;15351;52.408;16.826;2022-12-13T09:33:26;9.55;;;6.65;;
26435;SDS011;15351;52.408;16.826;2022-12-13T09:35:52;11.08;;;6.67;;
26435;SDS011;15351;52.408;16.826;2022-12-13T09:38:21;14.47;;;8.23;;
26435;SDS011;15351;52.408;16.826;2022-12-13T09:40:49;10.45;;;6.03;;
26435;SDS011;15351;52.408;16.826;2022-12-13T09:43:20;9.28;;;6.33;;
26435;SDS011;15351;52.408;16.826;2022-12-13T09:45:51;8.30;;;5.62;;
26435;SDS011;15351;52.408;16.826;2022-12-13T09:48:22;8.15;;;5.62;;
26435;SDS011;15351;52.408;16.826;2022-12-13T09:50:49;12.20;;;6.33;;
26435;SDS011;15351;52.408;16.826;2022-12-13T09:53:17;15.03;;;8.08;;
26435;SDS011;15351;52.408;16.826;2022-12-13T09:55:47;9.08;;;6.17;;
26435;SDS011;15351;52.408;16.826;2022-12-13T09:58:20;9.88;;;6.50;;
26435;SDS011;15351;52.408;16.826;2022-12-13T10:00:53;8.18;;;5.55;;
26435;SDS011;15351;52.408;16.826;2022-12-13T10:03:24;9.25;;;5.90;;
26435;SDS011;15351;52.408;16.826;2022-12-13T10:05:57;9.70;;;5.97;;
26435;SDS011;15351;52.408;16.826;2022-12-13T10:08:36;10.00;;;6.60;;
26435;SDS011;15351;52.408;16.826;2022-12-13T10:11:06;13.80;;;7.53;;
26435;SDS011;15351;52.408;16.826;2022-12-13T10:13:40;11.07;;;7.30;;
26435;SDS011;15351;52.408;16.826;2022-12-13T10:16:21;8.80;;;6.00;;
26435;SDS011;15351;52.408;16.826;2022-12-13T10:19:14;9.25;;;5.75;;
26435;SDS011;15351;52.408;16.826;2022-12-13T10:21:43;13.03;;;7.03;;
26435;SDS011;15351;52.408;16.826;2022-12-13T10:24:13;19.50;;;8.50;;
26435;SDS011;15351;52.408;16.826;2022-12-13T10:26:53;26.07;;;12.23;;
26435;SDS011;15351;52.408;16.826;2022-12-13T10:29:24;15.60;;;7.60;;
26435;SDS011;15351;52.408;16.826;2022-12-13T10:31:54;14.87;;;8.20;;
26435;SDS011;15351;52.408;16.826;2022-12-13T10:34:22;14.78;;;7.87;;
26435;SDS011;15351;52.408;16.826;2022-12-13T10:36:52;15.18;;;8.68;;
26435;SDS011;15351;52.408;16.826;2022-12-13T10:39:40;16.07;;;8.28;;
26435;SDS011;15351;52.408;16.826;2022-12-13T10:42:12;15.15;;;8.50;;
26435;SDS011;15351;52.408;16.826;2022-12-13T10:44:42;10.25;;;6.10;;
26435;SDS011;15351;52.408;16.826;2022-12-13T10:49:54;12.37;;;7.35;;
26435;SDS011;15351;52.408;16.826;2022-12-13T10:52:29;17.57;;;9.60;;
26435;SDS011;15351;52.408;16.826;2022-12-13T10:55:03;15.13;;;8.40;;
26435;SDS011;15351;52.408;16.826;2022-12-13T10:57:34;13.70;;;8.30;;
26435;SDS011;15351;52.408;16.826;2022-12-13T11:00:11;13.70;;;8.65;;
26435;SDS011;15351;52.408;16.826;2022-12-13T11:02:37;14.20;;;8.63;;
26435;SDS011;15351;52.408;16.826;2022-12-13T11:05:26;12.82;;;7.58;;
26435;SDS011;15351;52.408;16.826;2022-12-13T11:08:10;12.73;;;7.70;;
26435;SDS011;15351;52.408;16.826;2022-12-13T11:10:57;11.87;;;7.90;;
26435;SDS011;15351;52.408;16.826;2022-12-13T11:13:31;11.93;;;7.03;;
26435;SDS011;15351;52.408;16.826;2022-12-13T11:16:19;14.43;;;9.13;;
26435;SDS011;15351;52.408;16.826;2022-12-13T11:19:04;14.23;;;8.48;;
26435;SDS011;15351;52.408;16.826;2022-12-13T11:21:35;15.72;;;9.40;;
26435;SDS011;15351;52.408;16.826;2022-12-13T11:24:07;12.47;;;7.70;;
26435;SDS011;15351;52.408;16.826;2022-12-13T11:26:35;13.17;;;8.27;;
26435;SDS011;15351;52.408;16.826;2022-12-13T11:37:19;13.70;;;8.85;;
26435;SDS011;15351;52.408;16.826;2022-12-13T11:42:42;14.45;;;8.33;;
26435;SDS011;15351;52.408;16.826;2022-12-13T11:45:19;12.47;;;8.33;;
26435;SDS011;15351;52.408;16.826;2022-12-13T11:50:53;14.40;;;8.73;;
26435;SDS011;15351;52.408;16.826;2022-12-13T11:56:21;14.10;;;8.50;;
26435;SDS011;15351;52.408;16.826;2022-12-13T12:02:19;13.60;;;8.07;;
26435;SDS011;15351;52.408;16.826;2022-12-13T12:04:55;11.88;;;8.78;;
26435;SDS011;15351;52.408;16.826;2022-12-13T12:07:34;12.00;;;8.18;;
26435;SDS011;15351;52.408;16.826;2022-12-13T12:15:51;13.48;;;9.00;;
26435;SDS011;15351;52.408;16.826;2022-12-13T12:18:34;13.80;;;9.70;;
26435;SDS011;15351;52.408;16.826;2022-12-13T12:21:03;18.37;;;12.97;;
26435;SDS011;15351;52.408;16.826;2022-12-13T12:26:58;15.67;;;9.80;;
26435;SDS011;15351;52.408;16.826;2022-12-13T12:29:53;21.70;;;13.58;;
26435;SDS011;15351;52.408;16.826;2022-12-13T12:32:40;14.25;;;10.30;;
26435;SDS011;15351;52.408;16.826;2022-12-13T12:35:42;14.80;;;9.68;;
26435;SDS011;15351;52.408;16.826;2022-12-13T12:38:20;13.30;;;9.43;;
26435;SDS011;15351;52.408;16.826;2022-12-13T12:47:17;12.28;;;8.88;;
26435;SDS011;15351;52.408;16.826;2022-12-13T12:50:02;13.28;;;8.63;;
26435;SDS011;15351;52.408;16.826;2022-12-13T12:55:49;14.70;;;9.18;;
26435;SDS011;15351;52.408;16.826;2022-12-13T13:01:35;12.60;;;8.50;;
26435;SDS011;15351;52.408;16.826;2022-12-13T13:04:17;12.43;;;8.33;;
26435;SDS011;15351;52.408;16.826;2022-12-13T13:06:49;12.55;;;8.50;;
26435;SDS011;15351;52.408;16.826;2022-12-13T13:09:32;13.08;;;8.33;;
26435;SDS011;15351;52.408;16.826;2022-12-13T13:12:01;13.48;;;8.63;;
26435;SDS011;15351;52.408;16.826;2022-12-13T13:14:31;14.30;;;8.20;;
26435;SDS011;15351;52.408;16.826;2022-12-13T13:22:45;13.75;;;8.20;;
26435;SDS011;15351;52.408;16.826;2022-12-13T13:28:00;14.20;;;8.85;;
26435;SDS011;15351;52.408;16.826;2022-12-13T13:31:00;16.70;;;8.28;;
26435;SDS011;15351;52.408;16.826;2022-12-13T13:33:44;15.38;;;8.80;;
26435;SDS011;15351;52.408;16.826;2022-12-13T13:37:00;14.95;;;10.13;;
26435;SDS011;15351;52.408;16.826;2022-12-13T13:39:35;14.25;;;8.30;;
26435;SDS011;15351;52.408;16.826;2022-12-13T13:53:20;13.43;;;8.48;;
26435;SDS011;15351;52.408;16.826;2022-12-13T13:56:28;11.78;;;8.10;;
26435;SDS011;15351;52.408;16.826;2022-12-13T14:09:03;14.68;;;9.00;;
26435;SDS011;15351;52.408;16.826;2022-12-13T14:14:51;14.07;;;8.58;;
26435;SDS011;15351;52.408;16.826;2022-12-13T14:26:34;23.22;;;16.27;;
26435;SDS011;15351;52.408;16.826;2022-12-13T14:29:09;19.12;;;11.83;;
26435;SDS011;15351;52.408;16.826;2022-12-13T14:31:46;18.10;;;10.58;;
26435;SDS011;15351;52.408;16.826;2022-12-13T14:34:29;18.60;;;11.43;;
26435;SDS011;15351;52.408;16.826;2022-12-13T14:37:02;21.23;;;12.40;;
26435;SDS011;15351;52.408;16.826;2022-12-13T14:39:30;18.20;;;12.40;;
26435;SDS011;15351;52.408;16.826;2022-12-13T14:42:01;19.60;;;11.95;;
26435;SDS011;15351;52.408;16.826;2022-12-13T14:44:32;17.60;;;11.10;;
26435;SDS011;15351;52.408;16.826;2022-12-13T14:47:01;20.90;;;12.90;;
26435;SDS011;15351;52.408;16.826;2022-12-13T14:49:34;20.30;;;13.80;;
26435;SDS011;15351;52.408;16.826;2022-12-13T14:52:47;27.87;;;15.20;;
26435;SDS011;15351;52.408;16.826;2022-12-13T14:54:46;21.83;;;14.40;;
26435;SDS011;15351;52.408;16.826;2022-12-13T14:57:20;22.00;;;12.85;;
26435;SDS011;15351;52.408;16.826;2022-12-13T14:59:53;18.10;;;11.90;;
26435;SDS011;15351;52.408;16.826;2022-12-13T15:02:28;21.60;;;11.88;;
26435;SDS011;15351;52.408;16.826;2022-12-13T15:04:55;24.45;;;13.72;;
26435;SDS011;15351;52.408;16.826;2022-12-13T15:07:34;25.57;;;13.60;;
26435;SDS011;15351;52.408;16.826;2022-12-13T15:10:05;19.37;;;12.85;;
26435;SDS011;15351;52.408;16.826;2022-12-13T15:13:00;22.25;;;13.40;;
26435;SDS011;15351;52.408;16.826;2022-12-13T15:15:30;28.62;;;19.45;;
26435;SDS011;15351;52.408;16.826;2022-12-13T15:18:15;23.55;;;13.55;;
26435;SDS011;15351;52.408;16.826;2022-12-13T15:20:48;24.67;;;15.20;;
26435;SDS011;15351;52.408;16.826;2022-12-13T15:26:10;19.48;;;11.45;;
26435;SDS011;15351;52.408;16.826;2022-12-13T15:28:41;17.45;;;11.75;;
26435;SDS011;15351;52.408;16.826;2022-12-13T15:31:10;27.25;;;15.38;;
26435;SDS011;15351;52.408;16.826;2022-12-13T15:33:38;20.60;;;11.90;;
26435;SDS011;15351;52.408;16.826;2022-12-13T15:36:09;20.88;;;11.65;;
26435;SDS011;15351;52.408;16.826;2022-12-13T15:41:17;22.07;;;13.30;;
26435;SDS011;15351;52.408;16.826;2022-12-13T15:43:49;21.15;;;14.00;;
26435;SDS011;15351;52.408;16.826;2022-12-13T15:46:26;23.22;;;13.88;;
26435;SDS011;15351;52.408;16.826;2022-12-13T15:48:56;16.57;;;11.45;;
26435;SDS011;15351;52.408;16.826;2022-12-13T15:51:27;19.43;;;12.87;;
26435;SDS011;15351;52.408;16.826;2022-12-13T15:57:01;20.62;;;11.63;;
26435;SDS011;15351;52.408;16.826;2022-12-13T15:59:33;22.82;;;12.75;;
26435;SDS011;15351;52.408;16.826;2022-12-13T16:02:02;20.75;;;11.57;;
26435;SDS011;15351;52.408;16.826;2022-12-13T16:04:47;18.17;;;11.00;;
26435;SDS011;15351;52.408;16.826;2022-12-13T16:07:19;16.17;;;9.55;;
26435;SDS011;15351;52.408;16.826;2022-12-13T16:09:49;19.65;;;10.15;;
26435;SDS011;15351;52.408;16.826;2022-12-13T16:12:19;20.48;;;11.18;;
26435;SDS011;15351;52.408;16.826;2022-12-13T16:15:05;20.82;;;9.93;;
26435;SDS011;15351;52.408;16.826;2022-12-13T16:17:48;16.37;;;10.23;;
26435;SDS011;15351;52.408;16.826;2022-12-13T16:20:21;17.40;;;9.75;;
26435;SDS011;15351;52.408;16.826;2022-12-13T16:22:54;17.65;;;10.23;;
26435;SDS011;15351;52.408;16.826;2022-12-13T16:25:22;17.48;;;9.75;;
26435;SDS011;15351;52.408;16.826;2022-12-13T16:27:49;15.93;;;10.63;;
26435;SDS011;15351;52.408;16.826;2022-12-13T16:30:27;17.73;;;10.60;;
26435;SDS011;15351;52.408;16.826;2022-12-13T16:32:56;19.42;;;10.95;;
26435;SDS011;15351;52.408;16.826;2022-12-13T16:35:23;18.70;;;10.50;;
26435;SDS011;15351;52.408;16.826;2022-12-13T16:37:49;16.32;;;11.05;;
26435;SDS011;15351;52.408;16.826;2022-12-13T16:40:23;18.75;;;10.98;;
26435;SDS011;15351;52.408;16.826;2022-12-13T16:42:57;19.07;;;11.30;;
26435;SDS011;15351;52.408;16.826;2022-12-13T16:45:29;22.62;;;13.05;;
26435;SDS011;15351;52.408;16.826;2022-12-13T16:47:57;17.98;;;12.25;;
26435;SDS011;15351;52.408;16.826;2022-12-13T16:50:26;20.82;;;12.75;;
26435;SDS011;15351;52.408;16.826;2022-12-13T16:52:54;22.30;;;13.60;;
26435;SDS011;15351;52.408;16.826;2022-12-13T16:55:20;25.77;;;14.43;;